Time;durP1;ratioP1;P1;durP2;ratioP2;P2;SDS_P1;SDS_P2;PMS_P1;PMS_P2;Temp;Humidity;BMP_temperature;BMP_pressure;BME280_temperature;BME280_humidity;BME280_pressure;Samples;Min_cycle;Max_cycle;Signal;HPM_P1;HPM_P2
2022/08/19 00:01:39;;;;;;;14.90;8.88;;;;;;;-148.88;95.70;74912.03;4996591;28;20387;-77
2022/08/19 00:04:10;;;;;;;15.70;8.60;;;;;;;-148.88;95.59;74924.22;4996753;28;20391;-78
2022/08/19 00:06:38;;;;;;;11.23;8.70;;;;;;;-148.88;96.11;74932.34;4997495;28;20026;-78
2022/08/19 00:09:06;;;;;;;10.30;8.55;;;;;;;-148.88;96.52;74930.31;4996690;28;20029;-77
2022/08/19 00:11:35;;;;;;;14.93;9.45;;;;;;;-148.88;97.05;74948.56;4994760;28;20030;-77
2022/08/19 00:14:00;;;;;;;12.68;9.23;;;;;;;-148.88;97.10;74940.47;4995382;28;20400;-77
2022/08/19 00:16:27;;;;;;;13.98;9.15;;;;;;;-148.88;97.72;74936.41;4994902;28;20479;-77
2022/08/19 00:18:53;;;;;;;13.32;9.43;;;;;;;-148.88;97.49;74940.47;4995968;28;20153;-77
2022/08/19 00:21:19;;;;;;;13.25;9.32;;;;;;;-148.88;97.42;74936.41;4994467;28;20018;-77
2022/08/19 00:23:44;;;;;;;15.65;10.48;;;;;;;-148.88;97.27;74942.47;4996132;28;20037;-77
2022/08/19 00:26:10;;;;;;;12.75;10.15;;;;;;;-148.88;98.08;74958.72;4996177;28;20041;-78
2022/08/19 00:28:37;;;;;;;14.80;10.20;;;;;;;-148.88;98.61;74964.81;4996518;28;20026;-78
2022/08/19 00:31:04;;;;;;;12.77;9.52;;;;;;;-148.88;99.36;74972.94;4996663;28;20030;-78
2022/08/19 00:33:33;;;;;;;14.32;10.40;;;;;;;-148.88;99.45;74968.88;4996195;28;20026;-77
2022/08/19 00:36:00;;;;;;;16.10;10.80;;;;;;;-148.88;98.85;74968.88;4995956;28;20128;-77
2022/08/19 00:38:26;;;;;;;14.93;10.90;;;;;;;-148.88;98.48;74964.81;4994541;28;20061;-78
2022/08/19 00:40:51;;;;;;;17.52;11.15;;;;;;;-148.88;98.60;74966.84;4996545;28;20023;-78
2022/08/19 00:43:23;;;;;;;14.88;11.82;;;;;;;-148.88;99.24;74972.94;4997187;28;20347;-78
2022/08/19 00:45:49;;;;;;;16.45;11.02;;;;;;;-148.88;99.69;74981.06;4996704;28;20041;-78
2022/08/19 00:48:16;;;;;;;16.90;12.13;;;;;;;-148.88;100.00;74993.25;4996057;28;20026;-77
2022/08/19 00:50:43;;;;;;;17.15;13.25;;;;;;;-148.88;100.00;74997.31;4994124;28;20451;-77
2022/08/19 00:53:12;;;;;;;20.02;13.50;;;;;;;-148.88;100.00;74999.34;4996072;28;20499;-78
2022/08/19 00:55:38;;;;;;;17.52;13.40;;;;;;;-148.88;100.00;75009.50;4995540;28;20049;-78
2022/08/19 00:58:08;;;;;;;19.42;12.82;;;;;;;-148.88;100.00;75013.56;4996747;28;20022;-78
2022/08/19 01:00:37;;;;;;;16.52;13.07;;;;;;;-148.88;100.00;75013.56;4996274;28;20113;-78
2022/08/19 01:03:07;;;;;;;18.48;12.82;;;;;;;-148.88;100.00;75031.84;4996171;28;20034;-77
2022/08/19 01:05:32;;;;;;;18.40;13.52;;;;;;;-148.88;100.00;75033.88;4996952;28;20527;-78
2022/08/19 01:08:02;;;;;;;18.33;13.60;;;;;;;-148.88;100.00;75035.91;4996308;28;20026;-78
2022/08/19 01:10:30;;;;;;;23.58;14.07;;;;;;;-148.88;100.00;75039.97;4994982;28;20046;-78
2022/08/19 01:12:58;;;;;;;18.35;13.35;;;;;;;-148.88;100.00;75015.59;4995046;28;20427;-77
2022/08/19 01:15:29;;;;;;;16.00;12.88;;;;;;;-148.88;100.00;75005.44;4995121;28;20502;-77
2022/08/19 01:17:59;;;;;;;18.58;13.52;;;;;;;-148.88;100.00;74989.19;4993965;28;20073;-77
2022/08/19 01:20:24;;;;;;;15.93;12.13;;;;;;;-148.88;100.00;74989.19;4995058;28;20014;-78
2022/08/19 01:22:53;;;;;;;16.77;12.95;;;;;;;-148.88;100.00;74983.09;4995120;28;20517;-77
2022/08/19 01:25:31;;;;;;;19.08;12.50;;;;;;;-148.88;100.00;74981.06;4994965;28;20396;-77
2022/08/19 01:27:57;;;;;;;17.27;11.52;;;;;;;-148.88;99.77;74968.88;4994350;28;20077;-77
2022/08/19 01:30:30;;;;;;;15.20;12.27;;;;;;;-148.88;98.88;74977.00;4993179;28;20018;-78
2022/08/19 01:32:56;;;;;;;19.00;14.15;;;;;;;-148.88;99.02;74981.06;4995201;28;20036;-78
2022/08/19 01:35:23;;;;;;;18.77;13.35;;;;;;;-148.88;100.00;74989.19;4995791;28;20108;-78
2022/08/19 01:37:52;;;;;;;18.45;13.38;;;;;;;-148.88;100.00;74995.28;4995341;28;20023;-78
2022/08/19 01:40:20;;;;;;;20.55;15.18;;;;;;;-148.88;100.00;75001.38;4993438;28;20030;-77
2022/08/19 01:42:47;;;;;;;21.20;15.80;;;;;;;-148.88;100.00;75017.63;4996218;28;20049;-78
2022/08/19 01:45:13;;;;;;;25.73;15.60;;;;;;;-148.88;100.00;75027.78;4997067;28;20026;-78
2022/08/19 01:47:38;;;;;;;20.40;15.70;;;;;;;-148.88;100.00;75029.81;4996817;28;20028;-79
2022/08/19 01:50:06;;;;;;;24.67;16.38;;;;;;;-148.88;100.00;75025.75;4997440;28;20109;-78
2022/08/19 01:52:31;;;;;;;23.83;17.60;;;;;;;-148.88;100.00;75033.88;4996790;28;20050;-78
2022/08/19 01:54:57;;;;;;;23.65;18.20;;;;;;;-148.88;100.00;75033.88;4997657;28;20022;-79
2022/08/19 01:57:22;;;;;;;25.35;18.35;;;;;;;-148.88;100.00;75044.03;4997652;28;20030;-79
2022/08/19 01:59:47;;;;;;;25.98;17.73;;;;;;;-148.88;100.00;75037.94;5001051;28;20096;-79
2022/08/19 02:02:13;;;;;;;26.95;19.35;;;;;;;-148.88;100.00;75050.13;5001818;28;20486;-79
2022/08/19 02:04:39;;;;;;;31.58;20.83;;;;;;;-148.88;100.00;75042.00;5001887;28;20037;-79
2022/08/19 02:07:05;;;;;;;30.75;20.98;;;;;;;-148.88;100.00;75042.00;4998479;28;20022;-78
2022/08/19 02:09:32;;;;;;;28.23;20.50;;;;;;;-148.88;100.00;75048.09;5000046;28;20034;-78
2022/08/19 02:11:58;;;;;;;29.60;21.55;;;;;;;-148.88;100.00;75048.09;4998821;28;20033;-78
2022/08/19 02:14:23;;;;;;;31.00;21.05;;;;;;;-148.88;100.00;75046.06;4998484;28;20030;-77
2022/08/19 02:16:48;;;;;;;28.75;19.95;;;;;;;-148.88;100.00;75033.88;4997781;28;20022;-77
2022/08/19 02:19:14;;;;;;;30.02;21.45;;;;;;;-148.88;100.00;75039.97;4997475;28;20029;-77
2022/08/19 02:21:39;;;;;;;30.05;20.35;;;;;;;-148.88;100.00;75031.84;4997999;28;20018;-77
2022/08/19 02:24:05;;;;;;;28.05;19.90;;;;;;;-148.88;100.00;75035.91;4996527;28;20029;-76
2022/08/19 02:26:32;;;;;;;30.38;19.98;;;;;;;-148.88;100.00;75042.00;4995159;28;20133;-76
2022/08/19 02:28:57;;;;;;;28.23;19.65;;;;;;;-148.88;100.00;75048.09;4995161;28;20022;-76
2022/08/19 02:31:25;;;;;;;27.63;20.73;;;;;;;-148.88;100.00;75046.06;4996468;28;20097;-76
2022/08/19 02:33:51;;;;;;;28.88;20.48;;;;;;;-148.88;100.00;75048.09;4996616;28;20539;-76
2022/08/19 02:36:17;;;;;;;27.08;19.15;;;;;;;-148.88;100.00;75042.00;4996383;28;20481;-75
2022/08/19 02:38:43;;;;;;;29.92;20.52;;;;;;;-148.88;100.00;75046.06;4996551;28;20032;-75
2022/08/19 02:41:15;;;;;;;26.50;18.92;;;;;;;-148.88;100.00;75050.13;4996244;28;20365;-75
2022/08/19 02:43:41;;;;;;;26.85;19.75;;;;;;;-148.88;100.00;75044.03;4996215;28;20037;-75
2022/08/19 02:46:20;;;;;;;29.65;19.92;;;;;;;-148.88;100.00;75050.13;4996333;28;20076;-76
2022/08/19 02:48:54;;;;;;;30.90;19.08;;;;;;;-148.88;100.00;75044.03;4996109;28;20548;-76
2022/08/19 02:51:32;;;;;;;28.00;19.60;;;;;;;-148.88;100.00;75050.13;4996150;28;20029;-76
2022/08/19 02:53:59;;;;;;;30.33;20.70;;;;;;;-148.88;100.00;75050.13;4995151;28;20023;-76
2022/08/19 02:56:26;;;;;;;27.45;19.48;;;;;;;-148.88;100.00;75044.03;4995979;28;20080;-76
2022/08/19 02:58:52;;;;;;;30.23;19.45;;;;;;;-148.88;100.00;75035.91;4995952;28;20046;-76
2022/08/19 03:01:36;;;;;;;30.73;19.35;;;;;;;-148.88;100.00;75031.84;4995823;28;20105;-75
2022/08/19 03:04:04;;;;;;;24.98;17.95;;;;;;;-148.88;100.00;75019.66;4995877;28;20050;-75
2022/08/19 03:06:30;;;;;;;24.85;18.27;;;;;;;-148.88;100.00;75017.63;4995777;28;20442;-75
2022/08/19 03:08:56;;;;;;;24.65;17.67;;;;;;;-148.88;100.00;75021.69;4994477;28;20022;-76
2022/08/19 03:11:30;;;;;;;29.15;19.10;;;;;;;-148.88;100.00;75027.78;4995529;28;20038;-76
2022/08/19 03:13:57;;;;;;;23.80;18.02;;;;;;;-148.88;100.00;75027.78;4994347;28;20073;-75
2022/08/19 03:16:25;;;;;;;25.10;17.63;;;;;;;-148.88;100.00;75037.94;4995607;28;20018;-75
2022/08/19 03:18:51;;;;;;;21.23;16.42;;;;;;;-148.88;100.00;75025.75;4995592;28;20104;-76
2022/08/19 03:21:18;;;;;;;23.70;16.63;;;;;;;-148.88;100.00;75042.00;4994142;28;20046;-75
2022/08/19 03:23:44;;;;;;;22.92;16.65;;;;;;;-148.88;100.00;75054.19;4995542;28;20499;-76
2022/08/19 03:26:09;;;;;;;24.65;17.52;;;;;;;-148.88;100.00;75050.13;4995512;28;20034;-76
2022/08/19 03:28:35;;;;;;;23.83;17.65;;;;;;;-148.88;100.00;75035.91;4994131;28;20030;-75
2022/08/19 03:31:04;;;;;;;21.58;16.95;;;;;;;-148.88;100.00;75025.75;4995329;28;20026;-75
2022/08/19 03:33:30;;;;;;;24.58;17.38;;;;;;;-148.88;100.00;75031.84;4995295;28;20113;-75
2022/08/19 03:36:10;;;;;;;25.80;19.17;;;;;;;-148.88;100.00;75037.94;4995549;28;20022;-75
2022/08/19 03:38:38;;;;;;;31.73;19.55;;;;;;;-148.88;100.00;75050.13;4995444;28;20042;-75
2022/08/19 03:41:11;;;;;;;25.75;19.13;;;;;;;-148.88;100.00;75046.06;4995534;28;20113;-75
2022/08/19 03:43:37;;;;;;;32.35;20.15;;;;;;;-148.88;100.00;75046.06;4995393;28;20471;-75
2022/08/19 03:46:06;;;;;;;26.48;20.48;;;;;;;-148.88;100.00;75054.19;4995139;28;20499;-75
2022/08/19 03:48:33;;;;;;;30.17;20.35;;;;;;;-148.88;100.00;75062.31;4995060;28;20333;-75
2022/08/19 03:50:59;;;;;;;26.98;21.13;;;;;;;-148.88;100.00;75066.38;4993731;28;20094;-76
2022/08/19 03:53:27;;;;;;;28.15;20.75;;;;;;;-148.88;100.00;75054.19;4994907;28;20033;-76
2022/08/19 03:55:53;;;;;;;29.30;20.48;;;;;;;-148.88;100.00;75050.13;4995074;28;20022;-76
2022/08/19 03:58:19;;;;;;;26.48;20.58;;;;;;;-148.88;100.00;75058.25;4994926;28;20385;-76
2022/08/19 04:00:44;;;;;;;27.52;19.67;;;;;;;-148.88;100.00;75062.31;4993458;28;20468;-76
2022/08/19 04:03:10;;;;;;;28.40;20.02;;;;;;;-148.88;100.00;75068.41;4994825;28;20540;-76
2022/08/19 04:05:35;;;;;;;27.38;19.98;;;;;;;-148.88;100.00;75074.50;4995209;28;20029;-76
2022/08/19 04:08:00;;;;;;;28.52;20.15;;;;;;;-148.88;100.00;75082.63;4994102;28;20038;-76
2022/08/19 04:10:28;;;;;;;27.40;19.95;;;;;;;-148.88;100.00;75084.66;4995483;28;20038;-76
2022/08/19 04:12:53;;;;;;;27.27;20.77;;;;;;;-148.88;100.00;75082.63;4995127;28;20030;-76
2022/08/19 04:15:19;;;;;;;30.13;20.92;;;;;;;-148.88;100.00;75078.56;4995094;28;20029;-76
2022/08/19 04:17:44;;;;;;;30.35;21.52;;;;;;;-148.88;100.00;75078.56;4995525;28;20053;-77
2022/08/19 04:20:10;;;;;;;30.58;21.48;;;;;;;-148.88;100.00;75074.50;4995570;28;20023;-76
2022/08/19 04:22:35;;;;;;;29.90;21.67;;;;;;;-148.88;100.00;75070.44;4994839;28;20034;-76
2022/08/19 04:25:01;;;;;;;31.48;22.15;;;;;;;-148.88;100.00;75086.69;4995076;28;20065;-76
2022/08/19 04:27:26;;;;;;;31.20;22.70;;;;;;;-148.88;100.00;75074.50;4993793;28;20448;-76
2022/08/19 04:29:52;;;;;;;34.65;22.50;;;;;;;-148.88;100.00;75094.81;4993768;28;20034;-76
2022/08/19 04:32:17;;;;;;;33.10;22.95;;;;;;;-148.88;100.00;75096.81;4994919;28;20026;-76
2022/08/19 04:34:43;;;;;;;32.72;21.95;;;;;;;-148.88;100.00;75092.78;4994765;28;20030;-76
2022/08/19 04:37:11;;;;;;;31.58;23.50;;;;;;;-148.88;100.00;75111.03;4993448;28;20033;-76
2022/08/19 04:42:39;;;;;;;38.60;25.15;;;;;;;-148.88;100.00;75102.91;4996616;28;20061;-78
2022/08/19 04:45:06;;;;;;;32.80;22.98;;;;;;;-148.88;100.00;75088.72;4996193;28;20023;-77
2022/08/19 04:47:32;;;;;;;32.85;23.15;;;;;;;-148.88;100.00;75092.78;4994804;28;20041;-77
2022/08/19 04:49:58;;;;;;;36.15;25.45;;;;;;;-148.88;100.00;75106.97;4996199;28;20049;-77
2022/08/19 04:52:23;;;;;;;35.05;23.88;;;;;;;-148.88;100.00;75104.94;4995960;28;20030;-77
2022/08/19 04:54:49;;;;;;;34.60;24.70;;;;;;;-148.88;100.00;75111.03;4995801;28;20033;-77
2022/08/19 04:57:15;;;;;;;36.65;24.55;;;;;;;-148.88;100.00;75098.84;4995612;28;20165;-77
2022/08/19 04:59:40;;;;;;;34.65;24.10;;;;;;;-148.88;100.00;75106.97;4995776;28;20376;-77
2022/08/19 05:02:08;;;;;;;38.53;24.23;;;;;;;-148.88;100.00;75113.06;4995421;28;20460;-78
2022/08/19 05:04:33;;;;;;;38.58;26.08;;;;;;;-148.88;100.00;75111.03;4994754;28;20038;-77
2022/08/19 05:07:00;;;;;;;35.40;23.48;;;;;;;-148.88;100.00;75111.03;4995128;28;20022;-77
2022/08/19 05:09:25;;;;;;;31.17;22.40;;;;;;;-148.88;100.00;75102.91;4995339;28;20026;-77
2022/08/19 05:11:53;;;;;;;32.42;22.75;;;;;;;-148.88;100.00;75102.91;4994615;28;20092;-77
2022/08/19 05:14:20;;;;;;;33.70;22.92;;;;;;;-148.88;100.00;75102.91;4994745;28;20037;-77
2022/08/19 05:16:45;;;;;;;32.28;22.75;;;;;;;-148.88;100.00;75106.97;4993616;28;20065;-79
2022/08/19 05:24:38;;;;;;;;;;;;;;;-148.88;100.00;75098.84;4995663;28;20116;-78
2022/08/19 05:27:05;;;;;;;32.78;23.75;;;;;;;-148.88;100.00;75094.81;4993230;28;19909;-78
2022/08/19 05:29:31;;;;;;;35.63;24.40;;;;;;;-148.88;100.00;75088.72;4994434;28;20030;-78
2022/08/19 05:31:58;;;;;;;38.13;24.88;;;;;;;-148.88;100.00;75090.72;4994334;28;20033;-78
2022/08/19 05:34:25;;;;;;;37.10;25.45;;;;;;;-148.88;100.00;75082.63;4993361;28;20036;-78
2022/08/19 05:36:56;;;;;;;35.30;23.77;;;;;;;-148.88;100.00;75078.56;4994256;28;20056;-78
2022/08/19 05:39:25;;;;;;;35.55;24.88;;;;;;;-148.88;100.00;75098.84;4994302;28;20026;-78
2022/08/19 05:41:56;;;;;;;35.35;23.13;;;;;;;-148.88;100.00;75098.84;4992665;28;20391;-78
2022/08/19 05:44:24;;;;;;;37.55;25.17;;;;;;;-148.88;100.00;75102.91;4994189;28;20395;-78
2022/08/19 05:46:52;;;;;;;35.15;24.05;;;;;;;-148.88;100.00;75106.97;4993897;28;20464;-78
2022/08/19 05:49:19;;;;;;;35.30;23.65;;;;;;;-148.88;100.00;75090.72;4994288;28;20026;-78
2022/08/19 05:51:45;;;;;;;35.35;23.73;;;;;;;-148.88;100.00;75082.63;4993761;28;20022;-77
2022/08/19 05:54:13;;;;;;;31.73;23.63;;;;;;;-148.88;100.00;75078.56;4993090;28;20026;-78
2022/08/19 05:56:40;;;;;;;32.33;22.65;;;;;;;-148.88;100.00;75070.44;4993910;28;20022;-78
2022/08/19 05:59:10;;;;;;;36.13;23.27;;;;;;;-148.88;100.00;75068.41;4994723;28;20046;-79
2022/08/19 06:01:37;;;;;;;33.97;23.83;;;;;;;-148.88;100.00;75058.25;4994092;28;20029;-79
2022/08/19 06:04:03;;;;;;;32.05;21.42;;;;;;;-148.88;100.00;75046.06;4994015;28;20069;-78
2022/08/19 06:06:28;;;;;;;30.42;21.83;;;;;;;-148.88;100.00;75039.97;4993782;28;20065;-78
2022/08/19 06:08:54;;;;;;;30.80;23.02;;;;;;;-148.88;100.00;75033.88;4993775;28;20037;-78
2022/08/19 06:11:21;;;;;;;28.65;21.42;;;;;;;-148.88;100.00;75027.78;4992274;28;20164;-78
2022/08/19 06:13:50;;;;;;;32.15;21.92;;;;;;;-148.88;100.00;75033.88;4992349;28;20022;-78
2022/08/19 06:16:23;;;;;;;29.98;22.45;;;;;;;-148.88;100.00;75029.81;4993763;28;20029;-78
2022/08/19 06:18:51;;;;;;;32.88;21.45;;;;;;;-148.88;100.00;75017.63;4993671;28;20396;-78
2022/08/19 06:21:22;;;;;;;31.75;22.02;;;;;;;-148.88;100.00;75007.47;4993393;28;20026;-78
2022/08/19 06:23:47;;;;;;;32.92;22.38;;;;;;;-148.88;100.00;74999.34;4993516;28;20034;-78
2022/08/19 06:26:15;;;;;;;33.60;21.50;;;;;;;-148.88;100.00;74991.22;4993345;28;20035;-78
2022/08/19 06:28:46;;;;;;;30.40;19.35;;;;;;;-148.88;100.00;74997.31;4993707;28;20026;-78
2022/08/19 06:31:22;;;;;;;27.55;19.33;;;;;;;-148.88;100.00;75003.41;4993797;28;20022;-78
2022/08/19 06:33:49;;;;;;;26.92;20.08;;;;;;;-148.88;100.00;74997.31;4994846;28;20534;-78
2022/08/19 06:36:21;;;;;;;26.27;18.55;;;;;;;-148.88;100.00;75001.38;4994430;28;20430;-78
2022/08/19 06:38:46;;;;;;;26.83;18.38;;;;;;;-148.88;100.00;74997.31;4995006;28;20065;-78
2022/08/19 06:41:12;;;;;;;21.08;16.83;;;;;;;-148.88;100.00;74995.28;4993608;28;20054;-79
2022/08/19 06:43:37;;;;;;;23.67;17.73;;;;;;;-148.88;100.00;74989.19;4992496;28;20062;-78
2022/08/19 06:46:03;;;;;;;24.48;17.00;;;;;;;-148.88;99.53;74981.06;4996236;28;20461;-78
2022/08/19 06:48:29;;;;;;;21.92;16.80;;;;;;;-148.88;99.74;74981.06;4996865;28;20041;-78
2022/08/19 06:50:55;;;;;;;18.50;14.38;;;;;;;-148.88;99.67;74977.00;4996796;28;20426;-78
2022/08/19 06:53:21;;;;;;;19.92;14.88;;;;;;;-148.88;99.14;74977.00;4996653;28;20022;-78
2022/08/19 06:55:46;;;;;;;19.95;15.10;;;;;;;-148.88;98.36;74962.78;4997059;28;20113;-78
2022/08/19 06:58:11;;;;;;;19.15;15.07;;;;;;;-148.88;98.92;74952.63;4996767;28;20026;-78
2022/08/19 07:00:37;;;;;;;20.58;15.25;;;;;;;-148.88;98.97;74948.56;4996479;28;20018;-78
2022/08/19 07:03:03;;;;;;;15.80;13.10;;;;;;;-148.88;98.14;74936.41;4995186;28;20399;-78
2022/08/19 07:05:28;;;;;;;18.55;12.93;;;;;;;-148.88;97.57;74928.28;4996702;28;20062;-78
2022/08/19 07:07:53;;;;;;;18.67;13.98;;;;;;;-148.88;97.10;74916.09;4996403;28;20029;-78
2022/08/19 07:10:19;;;;;;;18.13;13.93;;;;;;;-148.88;96.59;74912.03;4996851;28;20026;-79
2022/08/19 07:12:45;;;;;;;21.35;13.43;;;;;;;-148.88;96.11;74885.63;4997846;28;20032;-79
2022/08/19 07:15:11;;;;;;;21.85;12.88;;;;;;;-148.88;95.97;74883.59;4997719;28;20026;-79
2022/08/19 07:17:39;;;;;;;19.52;13.35;;;;;;;-148.88;95.99;74875.47;4997873;28;20086;-79
2022/08/19 07:20:07;;;;;;;20.00;13.52;;;;;;;-148.88;96.05;74875.47;4997741;28;20105;-78
2022/08/19 07:22:33;;;;;;;13.77;11.82;;;;;;;-148.88;94.79;74863.28;4996741;28;20064;-78
2022/08/19 07:24:59;;;;;;;15.60;11.93;;;;;;;-148.88;94.36;74857.19;4996250;28;20057;-78
2022/08/19 07:27:24;;;;;;;17.08;13.15;;;;;;;-148.88;94.04;74849.06;4996494;28;20054;-78
2022/08/19 07:29:50;;;;;;;15.30;11.75;;;;;;;-148.88;93.14;74828.75;4996152;28;20023;-78
2022/08/19 07:32:15;;;;;;;13.63;11.65;;;;;;;-148.88;93.18;74812.53;4996238;28;20105;-78
2022/08/19 07:34:41;;;;;;;15.75;11.35;;;;;;;-148.88;93.18;74792.22;4996121;28;20032;-79
2022/08/19 07:37:07;;;;;;;16.85;10.85;;;;;;;-148.88;92.43;74769.88;4996352;28;20112;-78
2022/08/19 07:39:35;;;;;;;12.65;9.98;;;;;;;-148.88;91.07;74761.75;4995907;28;20036;-78
2022/08/19 07:42:06;;;;;;;11.18;9.27;;;;;;;-148.88;90.08;74755.66;4995700;28;20029;-78
2022/08/19 07:44:31;;;;;;;13.73;9.15;;;;;;;-148.88;90.49;74745.50;4995832;28;20026;-78
2022/08/19 07:46:57;;;;;;;12.95;9.73;;;;;;;-148.88;88.66;74733.31;4996136;28;20030;-78
2022/08/19 07:49:23;;;;;;;14.23;8.73;;;;;;;-148.88;88.76;74725.19;4997751;28;20030;-79
2022/08/19 07:51:57;;;;;;;11.80;8.50;;;;;;;-148.88;87.50;74717.06;4997328;28;20027;-79
2022/08/19 07:54:24;;;;;;;15.20;9.25;;;;;;;-148.88;87.78;74700.84;4997220;28;20030;-79
2022/08/19 07:56:50;;;;;;;11.68;9.10;;;;;;;-148.88;85.89;74672.41;4996455;28;20049;-79
2022/08/19 07:59:17;;;;;;;12.38;8.68;;;;;;;-148.88;85.74;74658.19;4997304;28;20057;-79
2022/08/19 08:01:42;;;;;;;12.43;8.88;;;;;;;-148.88;84.88;74660.22;4996661;28;20036;-78
2022/08/19 08:09:39;;;;;;;11.52;8.32;;;;;;;-148.88;84.68;74615.53;4996070;28;19920;-78
2022/08/19 08:12:10;;;;;;;11.60;8.90;;;;;;;-148.88;83.18;74611.47;4995265;28;20038;-78
2022/08/19 08:14:43;;;;;;;13.50;9.27;;;;;;;-148.88;83.67;74611.47;4995295;28;20468;-78
2022/08/19 08:17:09;;;;;;;;;;;;;;;-148.88;82.14;74603.34;4994402;28;20094;-78
2022/08/19 08:19:35;;;;;;;11.50;8.45;;;;;;;-148.88;81.71;74579.00;4995219;28;19914;-78
2022/08/19 08:22:02;;;;;;;9.88;8.50;;;;;;;-148.88;80.50;74566.81;4994973;28;20037;-78
2022/08/19 08:24:30;;;;;;;9.23;7.80;;;;;;;-148.88;79.49;74542.44;4995206;28;20030;-78
2022/08/19 08:26:58;;;;;;;12.88;7.57;;;;;;;-148.88;79.88;74511.97;4996873;28;20030;-79
2022/08/19 08:29:23;;;;;;;12.18;7.85;;;;;;;-148.88;78.07;74509.94;4996712;28;20029;-79
2022/08/19 08:31:49;;;;;;;12.30;8.90;;;;;;;-148.88;77.65;74514.00;4996565;28;20034;-79
2022/08/19 08:34:14;;;;;;;9.82;7.85;;;;;;;-148.88;78.09;74518.06;4996728;28;20030;-79
2022/08/19 08:36:44;;;;;;;10.18;7.85;;;;;;;-148.88;78.08;74509.94;4996989;28;20053;-79
2022/08/19 08:39:11;;;;;;;10.52;8.05;;;;;;;-148.88;76.88;74499.81;4995890;28;20018;-79
2022/08/19 08:41:52;;;;;;;9.88;7.20;;;;;;;-148.88;77.01;74481.53;4994537;28;20027;-78
2022/08/19 08:44:22;;;;;;;11.57;7.57;;;;;;;-148.88;75.21;74477.47;4995158;28;20046;-78
2022/08/19 08:47:00;;;;;;;10.15;6.72;;;;;;;-148.88;75.59;74473.41;4994845;28;20030;-78
2022/08/19 08:49:51;;;;;;;9.50;7.47;;;;;;;-148.88;75.44;74440.91;4994776;28;20396;-78
2022/08/19 08:52:25;;;;;;;11.43;7.55;;;;;;;-148.88;73.17;74426.69;4994560;28;20057;-78
2022/08/19 08:54:54;;;;;;;14.60;7.25;;;;;;;-148.88;72.33;74416.53;4993806;28;20093;-78
2022/08/19 08:57:28;;;;;;;9.05;6.43;;;;;;;-148.88;73.07;74412.47;4994491;28;20029;-78
2022/08/19 08:59:56;;;;;;;8.45;5.75;;;;;;;-148.88;73.43;74396.25;4993108;28;20033;-79
2022/08/19 09:02:22;;;;;;;7.80;5.60;;;;;;;-148.88;71.63;74386.09;4994296;28;20141;-79
2022/08/19 09:04:47;;;;;;;6.07;5.18;;;;;;;-148.88;69.08;74375.94;4995082;28;20117;-79
2022/08/19 09:07:55;;;;;;;8.90;5.40;;;;;;;-148.88;70.27;74363.75;4996627;28;20026;-79
2022/08/19 09:10:36;;;;;;;8.52;5.30;;;;;;;-148.88;67.52;74349.53;4996133;28;20031;-79
2022/08/19 09:13:34;;;;;;;7.10;5.40;;;;;;;-148.88;69.05;74313.00;4996199;28;20034;-79
2022/08/19 09:16:12;;;;;;;6.25;4.95;;;;;;;-148.88;65.52;74313.00;4994850;28;20423;-79
2022/08/19 09:18:46;;;;;;;6.55;4.57;;;;;;;-148.88;64.50;74298.78;4996249;28;20391;-79
2022/08/19 09:21:14;;;;;;;9.15;4.00;;;;;;;-148.88;63.93;74256.13;4994721;28;20026;-78
2022/08/19 09:23:40;;;;;;;5.10;3.60;;;;;;;-148.88;65.79;74229.75;4994368;28;20030;-78
2022/08/19 09:26:14;;;;;;;5.35;3.38;;;;;;;-148.88;62.65;74213.50;4994115;28;20022;-79
2022/08/19 09:28:43;;;;;;;5.88;3.20;;;;;;;-148.88;59.77;74203.34;4994099;28;20498;-79
2022/08/19 09:31:21;;;;;;;5.13;2.65;;;;;;;-148.88;60.53;74176.94;4994015;28;20018;-79
2022/08/19 09:33:47;;;;;;;8.38;3.92;;;;;;;-148.88;60.94;74183.03;4993889;28;20488;-78
2022/08/19 09:36:15;;;;;;;6.38;4.18;;;;;;;-148.88;58.08;74203.34;4993249;28;20030;-79
2022/08/19 09:38:41;;;;;;;5.55;4.00;;;;;;;-148.88;59.50;74176.94;4994142;28;20033;-78
2022/08/19 09:41:13;;;;;;;4.85;3.80;;;;;;;-148.88;57.96;74181.00;4992934;28;20027;-79
2022/08/19 09:43:40;;;;;;;4.57;3.60;;;;;;;-148.88;59.63;74164.78;4995959;28;20030;-80
2022/08/19 09:46:09;;;;;;;5.25;3.55;;;;;;;-148.88;60.41;74193.19;4996118;28;20153;-79
2022/08/19 09:48:35;;;;;;;5.75;3.95;;;;;;;-148.88;60.67;74154.63;4994868;28;20038;-80
2022/08/19 09:51:09;;;;;;;4.68;3.58;;;;;;;-148.88;60.36;74099.78;4996200;28;20022;-80
2022/08/19 09:53:35;;;;;;;5.32;3.30;;;;;;;-148.88;57.14;74136.34;4995495;28;20027;-80
2022/08/19 09:56:01;;;;;;;3.90;2.75;;;;;;;-148.88;55.21;74126.19;4998305;28;20027;-79
2022/08/19 09:58:27;;;;;;;5.88;3.30;;;;;;;-148.88;54.24;74071.38;4997426;28;20502;-80
2022/08/19 10:00:58;;;;;;;5.40;3.80;;;;;;;-148.88;54.03;74061.22;4995605;28;20030;-79
2022/08/19 10:03:24;;;;;;;4.55;3.20;;;;;;;-148.88;54.32;74024.69;4994407;28;20027;-79
2022/08/19 10:05:50;;;;;;;5.07;2.70;;;;;;;-148.88;53.46;74002.34;4993196;28;20108;-80
2022/08/19 10:08:25;;;;;;;5.82;3.42;;;;;;;-148.88;53.20;73980.00;4992705;28;20030;-79
2022/08/19 10:10:52;;;;;;;5.07;2.85;;;;;;;-148.88;53.66;74040.91;4994622;28;20026;-80
2022/08/19 10:13:23;;;;;;;4.45;3.10;;;;;;;-148.88;55.62;74099.78;4993914;28;20391;-80
2022/08/19 10:15:50;;;;;;;6.82;3.55;;;;;;;-148.88;58.10;74174.91;4994123;28;20022;-80
2022/08/19 10:18:19;;;;;;;3.80;2.55;;;;;;;-148.88;57.23;74075.44;4992543;28;20057;-79
2022/08/19 10:20:49;;;;;;;4.18;2.80;;;;;;;-148.88;54.26;74018.59;4998753;28;20075;-80
2022/08/19 10:23:15;;;;;;;4.18;2.80;;;;;;;-148.88;53.51;74002.34;5001309;28;20395;-81
2022/08/19 10:25:41;;;;;;;6.70;2.95;;;;;;;-148.88;55.28;74144.47;5000512;28;20461;-81
2022/08/19 10:28:07;;;;;;;4.50;3.08;;;;;;;-148.88;58.56;74205.38;4998910;28;20034;-81
2022/08/19 10:30:32;;;;;;;4.72;2.92;;;;;;;-148.88;56.65;74201.31;5001081;28;20022;-80
2022/08/19 10:32:58;;;;;;;4.55;3.38;;;;;;;-148.88;54.91;74217.56;5000830;28;20022;-81
2022/08/19 10:35:25;;;;;;;3.70;2.33;;;;;;;-148.88;53.94;74120.09;5000649;28;20022;-80
2022/08/19 10:37:50;;;;;;;4.35;1.95;;;;;;;-148.88;51.24;74085.59;4998936;28;20022;-81
2022/08/19 10:40:15;;;;;;;5.55;2.38;;;;;;;-148.88;49.17;74002.34;5000433;28;20024;-79
2022/08/19 10:42:43;;;;;;;3.97;1.92;;;;;;;-148.88;48.91;73988.13;4996540;28;20130;-79
2022/08/19 10:45:09;;;;;;;3.65;2.03;;;;;;;-148.88;50.85;73941.44;4997080;28;20019;-80
2022/08/19 10:47:35;;;;;;;2.90;2.20;;;;;;;-148.88;48.81;73910.97;4997071;28;20030;-80
2022/08/19 10:52:47;;;;;;;3.00;2.00;;;;;;;-148.88;45.71;73896.75;4997193;28;20037;-80
2022/08/19 10:57:56;;;;;;;3.22;1.90;;;;;;;-148.88;46.16;73908.94;4998479;28;20037;-80
2022/08/19 11:00:24;;;;;;;3.08;1.88;;;;;;;-148.88;44.22;73884.59;4999489;28;20038;-80
2022/08/19 11:02:50;;;;;;;2.50;1.55;;;;;;;-148.88;43.78;73933.31;4999652;28;20026;-80
2022/08/19 11:05:16;;;;;;;3.28;1.85;;;;;;;-148.88;46.76;73896.75;5000023;28;20026;-80
2022/08/19 11:07:44;;;;;;;4.30;2.40;;;;;;;-148.88;44.28;73878.50;4998201;28;20034;-80
2022/08/19 11:10:12;;;;;;;3.30;2.03;;;;;;;-148.88;44.26;73866.31;5015755;23;20049;-75
2022/08/19 11:12:39;;;;;;;3.50;2.00;;;;;;;-148.88;44.64;73850.06;5035828;28;20038;-76
2022/08/19 11:15:10;;;;;;;2.78;2.00;;;;;;;-148.88;43.79;73817.59;5035096;28;20029;-76
2022/08/19 11:17:40;;;;;;;3.20;2.00;;;;;;;-148.88;43.76;73823.69;5029500;28;20369;-76
2022/08/19 11:20:06;;;;;;;4.32;2.10;;;;;;;-148.88;43.91;73811.50;5015774;28;20018;-76
2022/08/19 11:22:31;;;;;;;4.53;2.13;;;;;;;-148.88;43.83;73823.69;5015633;28;20037;-76
2022/08/19 11:25:31;;;;;;;2.63;2.00;;;;;;;-148.88;43.02;73803.38;5031290;23;20054;-87